Armilla, Spain
Current Conditions -  °F | °C
As of 7:00 PM on Tuesday 21 Oct 2014 (Local Time) from LEGR Reporting Station
Clear Clear  
Wind Chill: 84°   Ceiling: Unl
Heat Index: 84°   Visibility: 6mi
Dew Point: 43°   Wind: 1mph
Humidity: 23%   Direction: NA
Pressure: 30.27"   Gusts: NA
Location:  37.14°N, 3.62°W
Report Text: LEGR 211700Z VRB01KT CAVOK 29/06 Q1025
Loading
Personal Weather Stations






























Interactive Weather Map
Tropical Storm Tracking
New forecast layout! Learn more

10-Day Weather Forecast

Advertisements
Track Severe Weather on mobile